createdAt,value
2023-02-06T00:01:49.864Z,57.80
2023-02-06T00:04:16.985Z,55.20
2023-02-06T00:06:43.806Z,42.63
2023-02-06T00:09:11.165Z,58.58
2023-02-06T00:11:37.823Z,36.70
2023-02-06T00:14:04.475Z,46.15
2023-02-06T00:16:33.527Z,45.63
2023-02-06T00:19:00.443Z,38.85
2023-02-06T00:21:28.314Z,50.00
2023-02-06T00:23:57.145Z,52.70
2023-02-06T00:26:24.402Z,46.45
2023-02-06T00:28:50.947Z,50.63
2023-02-06T00:31:18.010Z,44.90
2023-02-06T00:33:44.739Z,35.65
2023-02-06T00:36:11.935Z,43.70
2023-02-06T00:38:38.584Z,53.55
2023-02-06T00:41:06.122Z,45.85
2023-02-06T00:43:33.016Z,36.42
2023-02-06T00:45:59.571Z,54.30
2023-02-06T00:48:26.480Z,51.55
2023-02-06T00:50:53.727Z,54.53
2023-02-06T00:53:21.009Z,32.15
2023-02-06T00:55:47.640Z,49.03
2023-02-06T00:58:14.198Z,42.80
2023-02-06T01:00:43.111Z,46.65
2023-02-06T01:03:09.976Z,39.35
2023-02-06T01:05:37.566Z,45.10
2023-02-06T01:08:04.845Z,36.45
2023-02-06T01:10:31.994Z,41.05
2023-02-06T01:12:58.614Z,54.00
2023-02-06T01:15:25.280Z,46.70
2023-02-06T01:17:52.018Z,26.80
2023-02-06T01:20:18.684Z,45.17
2023-02-06T01:22:45.382Z,45.03
2023-02-06T01:25:12.015Z,59.35
2023-02-06T01:27:39.392Z,37.47
2023-02-06T01:30:07.119Z,55.20
2023-02-06T01:32:38.435Z,50.28
2023-02-06T01:35:06.971Z,61.65
2023-02-06T01:37:35.118Z,55.80
2023-02-06T01:40:02.259Z,48.85
2023-02-06T01:42:28.971Z,48.35
2023-02-06T01:45:17.286Z,48.22
2023-02-06T01:47:43.863Z,52.15
2023-02-06T01:50:10.529Z,59.83
2023-02-06T01:52:37.628Z,64.30
2023-02-06T01:55:04.790Z,53.75
2023-02-06T01:57:31.974Z,44.83
2023-02-06T02:00:03.517Z,39.13
2023-02-06T02:02:39.727Z,55.72
2023-02-06T02:05:10.004Z,68.50
2023-02-06T02:07:39.017Z,61.17
2023-02-06T02:10:05.873Z,54.40
2023-02-06T02:12:32.652Z,30.83
2023-02-06T02:14:59.566Z,47.38
2023-02-06T02:17:55.970Z,59.00
2023-02-06T02:20:33.423Z,53.13
2023-02-06T02:23:24.099Z,51.03
2023-02-06T02:26:15.358Z,54.83
2023-02-06T02:29:27.647Z,57.47
2023-02-06T02:32:01.871Z,47.90
2023-02-06T02:35:07.135Z,46.65
2023-02-06T02:37:53.887Z,46.17
2023-02-06T02:40:25.341Z,43.90
2023-02-06T02:43:04.728Z,45.85
2023-02-06T02:45:48.602Z,45.72
2023-02-06T02:48:18.866Z,69.18
2023-02-06T02:50:46.999Z,43.28
2023-02-06T02:53:14.757Z,45.88
2023-02-06T02:55:41.612Z,52.30
2023-02-06T02:58:10.965Z,40.75
2023-02-06T03:00:43.572Z,67.63
2023-02-06T03:03:12.342Z,49.08
2023-02-06T03:05:58.459Z,63.05
2023-02-06T03:08:34.907Z,46.25
2023-02-06T03:11:20.618Z,43.95
2023-02-06T03:14:06.388Z,39.38
2023-02-06T03:16:40.047Z,66.32
2023-02-06T03:19:17.115Z,46.72
2023-02-06T03:21:44.831Z,74.35
2023-02-06T03:24:14.797Z,54.17
2023-02-06T03:26:42.317Z,40.92
2023-02-06T03:29:11.578Z,49.92
2023-02-06T03:31:46.125Z,50.30
2023-02-06T03:38:04.705Z,43.30
2023-02-06T03:40:31.631Z,45.78
2023-02-06T03:43:00.924Z,55.90
2023-02-06T03:45:40.322Z,55.42
2023-02-06T03:48:19.077Z,49.67
2023-02-06T03:50:47.832Z,44.75
2023-02-06T03:53:14.668Z,56.33
2023-02-06T03:55:43.223Z,37.42
2023-02-06T03:58:12.059Z,38.42
2023-02-06T04:00:39.441Z,64.13
2023-02-06T04:03:06.205Z,36.95
2023-02-06T04:05:32.794Z,42.17
2023-02-06T04:07:59.276Z,44.47
2023-02-06T04:10:26.501Z,42.40
2023-02-06T04:12:53.704Z,60.97
2023-02-06T04:15:20.247Z,50.25
2023-02-06T04:17:59.187Z,65.40
2023-02-06T04:20:26.838Z,45.03
2023-02-06T04:22:53.369Z,49.60
2023-02-06T04:25:19.933Z,57.35
2023-02-06T04:27:46.432Z,38.80
2023-02-06T04:30:13.355Z,38.05
2023-02-06T04:32:39.848Z,43.92
2023-02-06T04:35:07.142Z,47.22
2023-02-06T04:37:33.651Z,54.72
2023-02-06T04:40:00.154Z,36.28
2023-02-06T04:42:26.676Z,39.80
2023-02-06T04:44:53.195Z,45.95
2023-02-06T04:47:19.718Z,66.95
2023-02-06T04:49:46.227Z,53.05
2023-02-06T04:52:12.772Z,59.90
2023-02-06T04:54:39.253Z,65.60
2023-02-06T04:57:05.763Z,65.30
2023-02-06T04:59:32.253Z,41.50
2023-02-06T05:01:58.803Z,63.78
2023-02-06T05:04:25.336Z,48.88
2023-02-06T05:06:51.914Z,54.42
2023-02-06T05:09:18.429Z,66.18
2023-02-06T05:11:45.210Z,50.33
2023-02-06T05:14:12.032Z,57.22
2023-02-06T05:16:38.660Z,41.85
2023-02-06T05:19:05.166Z,44.42
2023-02-06T05:21:31.672Z,57.97
2023-02-06T05:23:58.211Z,61.45
2023-02-06T05:26:24.864Z,62.60
2023-02-06T05:28:51.544Z,53.33
2023-02-06T05:31:19.902Z,70.72
2023-02-06T05:33:50.414Z,55.58
2023-02-06T05:36:18.978Z,71.00
2023-02-06T05:38:45.788Z,83.75
2023-02-06T05:41:12.343Z,74.10
2023-02-06T05:43:38.873Z,76.32
2023-02-06T05:46:05.590Z,72.20
2023-02-06T05:48:34.387Z,119.32
2023-02-06T05:51:01.324Z,97.93
2023-02-06T05:53:27.907Z,92.75
2023-02-06T05:55:54.492Z,83.53
2023-02-06T05:58:21.050Z,80.60
2023-02-06T06:00:47.598Z,93.72
2023-02-06T06:03:14.133Z,91.28
2023-02-06T06:05:40.748Z,95.50
2023-02-06T06:08:07.257Z,118.30
2023-02-06T06:10:33.759Z,115.68
2023-02-06T06:13:00.301Z,102.43
2023-02-06T06:15:26.860Z,114.10
2023-02-06T06:17:54.692Z,136.45
2023-02-06T06:20:21.432Z,114.82
2023-02-06T06:22:47.919Z,132.88
2023-02-06T06:25:14.444Z,104.82
2023-02-06T06:27:41.170Z,130.45
2023-02-06T06:30:08.446Z,109.60
2023-02-06T06:32:34.956Z,94.55
2023-02-06T06:35:01.562Z,132.15
2023-02-06T06:37:28.174Z,131.77
2023-02-06T06:39:54.671Z,111.20
2023-02-06T06:42:21.156Z,124.60
2023-02-06T06:44:47.695Z,132.63
2023-02-06T06:47:14.198Z,128.10
2023-02-06T06:49:40.707Z,155.43
2023-02-06T06:52:19.539Z,122.70
2023-02-06T06:54:52.323Z,118.90
2023-02-06T06:57:19.321Z,143.45
2023-02-06T06:59:45.887Z,113.57
2023-02-06T07:02:12.441Z,103.60
2023-02-06T07:04:39.060Z,127.20
2023-02-06T07:07:05.786Z,123.15
2023-02-06T07:09:32.349Z,67.18
2023-02-06T07:11:58.888Z,108.38
2023-02-06T07:14:25.427Z,59.67
2023-02-06T07:16:52.036Z,80.03
2023-02-06T07:19:18.807Z,88.53
2023-02-06T07:21:45.375Z,72.38
2023-02-06T07:24:11.835Z,61.78
2023-02-06T07:26:38.375Z,49.33
2023-02-06T07:29:04.948Z,56.65
2023-02-06T07:31:31.906Z,59.10
2023-02-06T07:33:59.746Z,61.03
2023-02-06T07:36:26.299Z,73.85
2023-02-06T07:38:52.800Z,52.13
2023-02-06T07:41:19.259Z,40.13
2023-02-06T07:43:45.983Z,67.82
2023-02-06T07:46:12.597Z,45.60
2023-02-06T07:48:39.202Z,48.10
2023-02-06T07:51:09.808Z,63.28
2023-02-06T07:53:37.230Z,57.17
2023-02-06T07:56:14.765Z,53.00
2023-02-06T07:58:41.536Z,48.55
2023-02-06T08:01:08.655Z,48.25
2023-02-06T08:03:35.257Z,49.70
2023-02-06T08:06:07.623Z,42.03
2023-02-06T08:08:34.119Z,46.38
2023-02-06T08:11:04.743Z,49.50
2023-02-06T08:13:31.247Z,56.60
2023-02-06T08:15:57.760Z,52.75
2023-02-06T08:18:24.323Z,44.22
2023-02-06T08:20:50.805Z,71.85
2023-02-06T08:23:17.988Z,56.63
2023-02-06T08:25:45.742Z,55.58
2023-02-06T08:28:14.838Z,42.83
2023-02-06T08:30:41.539Z,65.80
2023-02-06T08:33:08.221Z,66.78
2023-02-06T08:35:35.095Z,68.95
2023-02-06T08:38:01.972Z,44.17
2023-02-06T08:40:28.561Z,46.97
2023-02-06T08:42:55.044Z,48.47
2023-02-06T08:45:21.590Z,57.90
2023-02-06T08:47:48.119Z,66.13
2023-02-06T08:50:14.872Z,58.97
2023-02-06T08:52:41.477Z,76.32
2023-02-06T08:55:08.252Z,50.78
2023-02-06T08:57:34.833Z,46.13
2023-02-06T09:00:01.307Z,55.17
2023-02-06T09:02:27.905Z,49.15
2023-02-06T09:04:54.500Z,52.50
2023-02-06T09:07:22.351Z,47.97
2023-02-06T09:09:48.926Z,61.50
2023-02-06T09:12:15.708Z,53.53
2023-02-06T09:14:42.263Z,66.88
2023-02-06T09:17:08.995Z,63.10
2023-02-06T09:19:35.533Z,78.88
2023-02-06T09:22:02.095Z,55.25
2023-02-06T09:24:30.510Z,53.70
2023-02-06T09:27:00.162Z,63.08
2023-02-06T09:29:29.078Z,81.32
2023-02-06T09:31:57.223Z,153.63
2023-02-06T09:34:25.707Z,144.57
2023-02-06T09:36:54.382Z,129.38
2023-02-06T09:39:20.998Z,152.25
2023-02-06T09:41:50.917Z,181.40
2023-02-06T09:44:53.444Z,166.30
2023-02-06T09:47:25.131Z,132.38
2023-02-06T09:50:02.614Z,147.07
2023-02-06T09:52:34.831Z,169.52
2023-02-06T09:55:20.947Z,155.07
2023-02-06T09:58:05.705Z,151.65
2023-02-06T10:00:45.855Z,131.60
2023-02-06T10:03:38.526Z,154.10
2023-02-06T10:06:23.522Z,132.73
2023-02-06T10:09:08.176Z,134.48
2023-02-06T10:11:46.594Z,134.88
2023-02-06T10:14:23.601Z,142.55
2023-02-06T10:16:55.156Z,137.35
2023-02-06T10:19:46.607Z,139.40
2023-02-06T10:22:20.866Z,111.00
2023-02-06T10:25:12.197Z,98.55
2023-02-06T10:30:06.856Z,94.15
2023-02-06T10:32:43.380Z,100.13
2023-02-06T10:35:29.921Z,107.90
2023-02-06T10:38:22.413Z,96.85
2023-02-06T10:41:16.919Z,112.28
2023-02-06T10:44:06.493Z,105.68
2023-02-06T10:46:53.493Z,93.15
2023-02-06T10:49:34.107Z,79.47
2023-02-06T10:52:03.578Z,82.25
2023-02-06T10:54:43.225Z,77.90
2023-02-06T10:57:16.411Z,107.38
2023-02-06T10:59:48.734Z,94.78
2023-02-06T11:02:48.980Z,88.55
2023-02-06T11:05:25.982Z,95.40
2023-02-06T11:07:59.247Z,91.90
2023-02-06T11:10:26.655Z,90.15
2023-02-06T11:13:05.074Z,89.15
2023-02-06T11:15:36.620Z,92.03
2023-02-06T11:18:05.523Z,82.55
2023-02-06T11:20:34.752Z,88.72
2023-02-06T11:23:24.663Z,72.22
2023-02-06T11:26:19.802Z,82.10
2023-02-06T11:28:52.367Z,83.60
2023-02-06T11:31:21.337Z,74.80
2023-02-06T11:33:52.908Z,82.93
2023-02-06T11:36:39.687Z,81.75
2023-02-06T11:39:20.806Z,90.35
2023-02-06T11:42:02.210Z,86.93
2023-02-06T11:46:58.477Z,81.75
2023-02-06T11:49:28.901Z,82.28
2023-02-06T11:51:59.921Z,76.47
2023-02-06T11:54:32.144Z,88.45
2023-02-06T11:57:07.702Z,83.80
2023-02-06T11:59:36.543Z,84.07
2023-02-06T12:02:24.397Z,95.55
2023-02-06T12:04:53.059Z,92.18
2023-02-06T12:07:30.294Z,102.68
2023-02-06T12:09:59.187Z,106.97
2023-02-06T12:12:29.227Z,101.22
2023-02-06T12:15:33.108Z,92.85
2023-02-06T12:18:04.076Z,101.43
2023-02-06T12:20:45.651Z,91.15
2023-02-06T12:23:18.781Z,91.13
2023-02-06T12:25:49.858Z,95.63
2023-02-06T12:28:19.965Z,97.38
2023-02-06T12:30:56.977Z,89.43
2023-02-06T12:33:37.051Z,106.25
2023-02-06T12:36:17.058Z,99.15
2023-02-06T12:39:08.082Z,97.95
2023-02-06T12:41:53.131Z,114.13
2023-02-06T12:44:56.698Z,105.30
2023-02-06T12:47:29.273Z,106.40
2023-02-06T12:50:14.488Z,120.80
2023-02-06T12:52:50.098Z,109.20
2023-02-06T12:55:29.071Z,108.32
2023-02-06T12:57:56.308Z,116.43
2023-02-06T13:00:29.095Z,105.57
2023-02-06T13:03:22.893Z,113.30
2023-02-06T13:05:52.578Z,118.50
2023-02-06T13:08:38.383Z,80.82
2023-02-06T13:11:08.312Z,74.70
2023-02-06T13:13:40.001Z,76.72
2023-02-06T13:16:07.423Z,75.38
2023-02-06T13:18:44.535Z,71.07
2023-02-06T13:21:28.767Z,88.20
2023-02-06T13:24:01.426Z,82.22
2023-02-06T13:26:43.261Z,79.35
2023-02-06T13:29:28.860Z,95.75
2023-02-06T13:32:19.889Z,93.18
2023-02-06T13:34:49.223Z,99.30
2023-02-06T13:37:35.446Z,110.82
2023-02-06T13:40:30.326Z,102.65
2023-02-06T13:43:10.018Z,120.13
2023-02-06T13:45:57.441Z,119.85
2023-02-06T13:48:51.614Z,112.63
2023-02-06T13:51:42.769Z,122.28
2023-02-06T13:54:30.838Z,106.32
2023-02-06T13:57:28.835Z,117.07
2023-02-06T14:00:01.324Z,122.63
2023-02-06T14:02:38.090Z,110.30
2023-02-06T14:05:08.717Z,114.93
2023-02-06T14:08:05.677Z,104.93
2023-02-06T14:11:25.102Z,116.20
2023-02-06T14:14:21.677Z,94.78
2023-02-06T14:17:04.331Z,84.20
2023-02-06T14:19:55.096Z,74.25
2023-02-06T14:22:34.414Z,75.25
2023-02-06T14:25:34.908Z,78.70
2023-02-06T14:28:39.387Z,82.47
2023-02-06T14:31:21.392Z,75.25
2023-02-06T14:34:00.517Z,75.88
2023-02-06T14:36:45.263Z,68.40
2023-02-06T14:39:34.366Z,72.70
2023-02-06T14:42:07.142Z,63.05
2023-02-06T14:44:34.850Z,64.90
2023-02-06T14:47:01.645Z,67.85
2023-02-06T14:49:33.725Z,76.88
2023-02-06T14:52:01.316Z,72.45
2023-02-06T14:54:36.519Z,80.05
2023-02-06T14:57:06.413Z,69.57
2023-02-06T14:59:33.315Z,69.90
2023-02-06T15:02:12.618Z,81.18
2023-02-06T15:04:47.120Z,72.20
2023-02-06T15:07:24.843Z,71.60
2023-02-06T15:10:05.726Z,63.55
2023-02-06T15:12:33.037Z,68.07
2023-02-06T15:15:05.171Z,70.47
2023-02-06T15:17:34.084Z,72.75
2023-02-06T15:20:28.296Z,67.10
2023-02-06T15:23:08.107Z,59.90
2023-02-06T15:26:06.014Z,77.10
2023-02-06T15:28:34.247Z,65.10
2023-02-06T15:31:01.933Z,60.63
2023-02-06T15:33:31.233Z,63.83
2023-02-06T15:36:00.355Z,62.70
2023-02-06T15:38:29.552Z,68.00
2023-02-06T15:40:59.236Z,56.45
2023-02-06T15:43:27.247Z,67.38
2023-02-06T15:45:57.246Z,67.15
2023-02-06T15:48:37.562Z,59.33
2023-02-06T15:51:30.692Z,62.95
2023-02-06T15:54:19.359Z,58.63
2023-02-06T15:56:50.477Z,56.03
2023-02-06T16:01:47.844Z,53.05
2023-02-06T16:04:24.100Z,55.05
2023-02-06T16:07:17.092Z,70.93
2023-02-06T16:09:50.187Z,55.85
2023-02-06T16:12:17.943Z,63.72
2023-02-06T16:15:01.812Z,62.60
2023-02-06T16:17:37.860Z,60.67
2023-02-06T16:20:32.851Z,69.22
2023-02-06T16:23:19.540Z,61.85
2023-02-06T16:25:47.507Z,72.68
2023-02-06T16:28:22.720Z,53.17
2023-02-06T16:30:58.152Z,54.38
2023-02-06T16:33:47.104Z,57.85
2023-02-06T16:36:15.546Z,64.97
2023-02-06T16:38:48.261Z,61.47
2023-02-06T16:41:38.157Z,63.90
2023-02-06T16:44:11.194Z,55.78
2023-02-06T16:46:37.673Z,54.40
2023-02-06T16:49:17.274Z,67.38
2023-02-06T16:51:44.592Z,58.85
2023-02-06T16:54:28.062Z,55.35
2023-02-06T16:56:55.994Z,60.20
2023-02-06T16:59:22.897Z,69.53
2023-02-06T17:01:49.443Z,61.58
2023-02-06T17:04:15.967Z,64.05
2023-02-06T17:06:42.499Z,63.47
2023-02-06T17:09:12.228Z,68.00
2023-02-06T17:11:39.043Z,70.25
2023-02-06T17:14:06.013Z,59.35
2023-02-06T17:16:33.581Z,69.60
2023-02-06T17:19:00.131Z,60.75
2023-02-06T17:21:29.636Z,67.10
2023-02-06T17:23:56.206Z,51.67
2023-02-06T17:26:23.101Z,60.60
2023-02-06T17:28:50.732Z,70.13
2023-02-06T17:31:18.122Z,55.28
2023-02-06T17:33:44.749Z,63.20
2023-02-06T17:36:17.228Z,64.88
2023-02-06T17:38:44.236Z,48.35
2023-02-06T17:41:10.879Z,58.17
2023-02-06T17:43:37.569Z,65.30
2023-02-06T17:46:05.559Z,59.80
2023-02-06T17:48:36.328Z,71.07
2023-02-06T17:51:04.872Z,60.70
2023-02-06T17:53:31.704Z,70.00
2023-02-06T17:56:12.875Z,55.53
2023-02-06T17:58:43.060Z,55.42
2023-02-06T18:01:15.871Z,49.08
2023-02-06T18:03:42.685Z,74.47
2023-02-06T18:06:10.589Z,51.83
2023-02-06T18:08:37.275Z,54.03
2023-02-06T18:11:12.285Z,60.13
2023-02-06T18:13:39.938Z,53.17
2023-02-06T18:16:07.520Z,59.72
2023-02-06T18:18:34.178Z,52.25
2023-02-06T18:21:00.737Z,52.72
2023-02-06T18:23:27.280Z,52.92
2023-02-06T18:25:53.926Z,44.38
2023-02-06T18:28:20.538Z,52.60
2023-02-06T18:30:47.205Z,56.85
2023-02-06T18:33:13.814Z,64.05
2023-02-06T18:35:42.366Z,59.35
2023-02-06T18:38:09.882Z,57.30
2023-02-06T18:40:37.805Z,49.78
2023-02-06T18:43:05.242Z,62.28
2023-02-06T18:45:34.379Z,54.17
2023-02-06T18:48:02.411Z,47.95
2023-02-06T18:50:29.025Z,37.88
2023-02-06T18:52:55.819Z,57.10
2023-02-06T18:55:23.185Z,39.50
2023-02-06T18:57:50.076Z,37.17
2023-02-06T19:00:18.512Z,36.10
2023-02-06T19:02:45.248Z,53.00
2023-02-06T19:05:11.789Z,48.22
2023-02-06T19:07:39.692Z,43.30
2023-02-06T19:10:09.983Z,45.22
2023-02-06T19:12:37.548Z,64.25
2023-02-06T19:15:05.571Z,47.13
2023-02-06T19:17:32.839Z,41.22
2023-02-06T19:19:59.425Z,54.25
2023-02-06T19:22:26.366Z,52.83
2023-02-06T19:24:53.342Z,51.55
2023-02-06T19:27:21.361Z,61.72
2023-02-06T19:29:47.947Z,45.78
2023-02-06T19:32:14.490Z,51.03
2023-02-06T19:34:41.885Z,46.92
2023-02-06T19:37:10.004Z,58.08
2023-02-06T19:39:39.815Z,69.68
2023-02-06T19:42:09.441Z,65.00
2023-02-06T19:44:36.949Z,48.53
2023-02-06T19:47:03.703Z,50.25
2023-02-06T19:49:30.500Z,56.95
2023-02-06T19:51:57.003Z,47.10
2023-02-06T19:54:23.512Z,43.00
2023-02-06T19:56:50.057Z,56.15
2023-02-06T19:59:19.399Z,61.38
2023-02-06T20:01:46.804Z,50.35
2023-02-06T20:04:13.684Z,58.28
2023-02-06T20:06:43.659Z,77.80
2023-02-06T20:09:14.627Z,53.42
2023-02-06T20:11:41.899Z,64.70
2023-02-06T20:14:09.243Z,53.28
2023-02-06T20:16:37.832Z,46.75
2023-02-06T20:19:09.107Z,49.40
2023-02-06T20:21:39.206Z,58.95
2023-02-06T20:24:08.272Z,49.17
2023-02-06T20:26:37.054Z,53.33
2023-02-06T20:29:05.223Z,48.92
2023-02-06T20:31:33.673Z,50.38
2023-02-06T20:34:00.217Z,46.78
2023-02-06T20:36:27.784Z,40.33
2023-02-06T20:38:57.432Z,43.75
2023-02-06T20:41:29.674Z,51.58
2023-02-06T20:44:02.408Z,50.08
2023-02-06T20:46:30.659Z,58.78
2023-02-06T20:48:59.207Z,50.65
2023-02-06T20:51:26.152Z,44.85
2023-02-06T20:53:53.243Z,51.13
2023-02-06T20:56:21.188Z,44.90
2023-02-06T20:58:50.165Z,39.70
2023-02-06T21:01:22.260Z,48.72
2023-02-06T21:03:49.971Z,42.67
2023-02-06T21:06:16.675Z,62.25
2023-02-06T21:08:45.629Z,53.88
2023-02-06T21:11:12.208Z,54.85
2023-02-06T21:13:40.542Z,50.03
2023-02-06T21:16:07.438Z,40.22
2023-02-06T21:18:34.063Z,54.70
2023-02-06T21:21:08.935Z,51.55
2023-02-06T21:23:36.970Z,39.78
2023-02-06T21:26:04.776Z,55.65
2023-02-06T21:28:32.921Z,44.40
2023-02-06T21:31:02.508Z,47.42
2023-02-06T21:33:29.391Z,51.55
2023-02-06T21:35:58.424Z,51.40
2023-02-06T21:38:25.083Z,65.50
2023-02-06T21:40:51.646Z,57.60
2023-02-06T21:43:18.222Z,60.78
2023-02-06T21:45:47.633Z,57.03
2023-02-06T21:48:14.651Z,65.50
2023-02-06T21:50:41.491Z,69.13
2023-02-06T21:53:08.903Z,67.70
2023-02-06T21:55:41.251Z,66.75
2023-02-06T21:58:07.812Z,69.03
2023-02-06T22:00:34.382Z,58.78
2023-02-06T22:03:00.961Z,58.75
2023-02-06T22:05:28.392Z,65.53
2023-02-06T22:07:54.893Z,59.97
2023-02-06T22:10:21.497Z,73.53
2023-02-06T22:12:49.065Z,63.05
2023-02-06T22:15:15.655Z,63.75
2023-02-06T22:17:42.151Z,60.45
2023-02-06T22:20:08.868Z,72.88
2023-02-06T22:22:37.178Z,70.43
2023-02-06T22:25:03.737Z,82.43
2023-02-06T22:27:32.692Z,66.05
2023-02-06T22:29:59.215Z,72.10
2023-02-06T22:32:25.735Z,74.30
2023-02-06T22:34:53.801Z,67.40
2023-02-06T22:37:20.377Z,75.82
2023-02-06T22:39:46.873Z,67.10
2023-02-06T22:42:13.454Z,73.03
2023-02-06T22:44:40.170Z,80.57
2023-02-06T22:47:07.212Z,67.65
2023-02-06T22:49:33.767Z,68.50
2023-02-06T22:52:01.419Z,68.72
2023-02-06T22:54:28.000Z,64.32
2023-02-06T22:56:54.780Z,69.50
2023-02-06T22:59:24.105Z,70.32
2023-02-06T23:01:55.409Z,71.15
2023-02-06T23:04:27.121Z,57.35
2023-02-06T23:06:54.640Z,72.72
2023-02-06T23:09:29.825Z,60.65
2023-02-06T23:11:58.265Z,63.40
2023-02-06T23:14:26.177Z,60.55
2023-02-06T23:16:52.753Z,76.55
2023-02-06T23:19:20.046Z,78.55
2023-02-06T23:21:48.145Z,74.30
2023-02-06T23:24:15.072Z,69.30
2023-02-06T23:26:43.717Z,73.38
2023-02-06T23:29:15.537Z,83.57
2023-02-06T23:31:43.221Z,66.57
2023-02-06T23:34:09.949Z,71.38
2023-02-06T23:36:37.413Z,75.85
2023-02-06T23:39:05.323Z,72.63
2023-02-06T23:41:33.046Z,90.78
2023-02-06T23:44:01.716Z,81.68
2023-02-06T23:46:30.634Z,73.15
2023-02-06T23:48:57.320Z,78.57
2023-02-06T23:51:24.420Z,80.28
2023-02-06T23:53:51.175Z,72.43
2023-02-06T23:56:25.344Z,81.97
2023-02-06T23:58:53.632Z,77.68
